Time;durP1;ratioP1;P1;durP2;ratioP2;P2;SDS_P1;SDS_P2;PMS_P1;PMS_P2;Temp;Humidity;BMP_temperature;BMP_pressure;BME280_temperature;BME280_humidity;BME280_pressure;Samples;Min_cycle;Max_cycle;Signal;HPM_P1;HPM_P2
2022/03/01 00:02:23;;;;;;;;;31.00;31.00;;;;;9.00;42.69;102155.47;5019867;28;47899;-75
2022/03/01 00:04:48;;;;;;;;;43.67;35.33;;;;;9.43;42.84;102231.38;5033206;28;45388;-75
2022/03/01 00:07:14;;;;;;;;;38.67;34.67;;;;;9.41;42.46;102227.97;5041338;28;45439;-75
2022/03/01 00:09:39;;;;;;;;;36.67;32.00;;;;;9.14;43.09;102184.63;5035181;28;45481;-76
2022/03/01 00:12:06;;;;;;;;;44.33;36.00;;;;;9.37;42.98;102226.44;5030172;28;47345;-75
2022/03/01 00:14:31;;;;;;;;;40.00;35.00;;;;;9.35;42.72;102215.06;5031191;28;45442;-75
2022/03/01 00:16:57;;;;;;;;;46.75;37.50;;;;;9.31;42.74;102208.25;5037296;28;45613;-74
2022/03/01 00:19:22;;;;;;;;;45.00;38.75;;;;;8.87;42.84;102141.31;5034886;28;45575;-74
2022/03/01 00:21:48;;;;;;;;;49.00;38.50;;;;;9.26;42.84;102210.38;5032649;28;47971;-75
2022/03/01 00:24:13;;;;;;;;;42.50;35.75;;;;;9.33;42.92;102216.13;5026718;28;45424;-75
2022/03/01 00:26:39;;;;;;;;;42.00;36.00;;;;;9.34;42.81;102210.72;5022590;28;45510;-76
2022/03/01 00:29:05;;;;;;;;;46.25;39.50;;;;;9.36;42.83;102216.78;5042984;28;45581;-75
2022/03/01 00:31:30;;;;;;;;;46.50;38.00;;;;;9.36;42.92;102200.00;5019622;28;45446;-75
2022/03/01 00:33:55;;;;;;;;;45.00;37.25;;;;;9.37;42.65;102210.50;5034691;28;45431;-73
2022/03/01 00:36:21;;;;;;;;;44.00;38.00;;;;;9.17;42.65;102181.75;5038511;28;45414;-74
2022/03/01 00:38:46;;;;;;;;;1.00;1.00;;;;;9.25;43.13;102182.13;5025911;28;45462;-73
2022/03/01 00:41:12;;;;;;;;;48.50;38.25;;;;;9.28;43.02;102197.00;5028723;28;47155;-75
2022/03/01 00:43:37;;;;;;;;;36.75;35.00;;;;;9.32;42.91;102214.41;5024790;28;45535;-76
2022/03/01 00:46:03;;;;;;;;;44.33;37.67;;;;;9.30;43.20;102211.88;5026135;28;45483;-76
2022/03/01 00:48:28;;;;;;;;;52.50;42.00;;;;;9.28;43.07;102203.16;5020437;28;45489;-75
2022/03/01 00:50:53;;;;;;;;;48.75;39.00;;;;;9.20;43.29;102200.13;5026589;28;48501;-73
2022/03/01 00:53:19;;;;;;;;;43.00;35.00;;;;;9.03;43.20;102172.06;5024381;28;48320;-74
2022/03/01 00:55:44;;;;;;;;;49.00;38.00;;;;;9.15;43.42;102192.47;5033633;28;45396;-73
2022/03/01 00:58:10;;;;;;;;;49.75;41.25;;;;;9.16;43.18;102196.00;5020542;28;45447;-74
2022/03/01 01:00:35;;;;;;;;;54.00;39.75;;;;;9.29;43.55;102214.63;5027326;28;46556;-75
2022/03/01 01:03:03;;;;;;;;;51.50;41.00;;;;;9.12;43.48;102197.13;5029087;28;45729;-73
2022/03/01 01:05:29;;;;;;;;;46.25;37.25;;;;;9.25;43.21;102219.28;5027848;28;45571;-73
2022/03/01 01:07:54;;;;;;;;;52.75;41.75;;;;;8.83;43.32;102143.31;5024894;28;45527;-73
2022/03/01 01:10:20;;;;;;;;;48.25;38.75;;;;;9.14;43.77;102189.94;5026382;28;48253;-74
2022/03/01 01:12:46;;;;;;;;;48.00;38.00;;;;;9.20;43.61;102201.94;5039421;28;45470;-73
2022/03/01 01:15:15;;;;;;;;;48.00;37.75;;;;;9.25;43.53;102211.31;5027175;28;45414;-76
2022/03/01 01:17:40;;;;;;;;;48.00;39.25;;;;;9.09;43.61;102190.22;5024068;28;45430;-75
2022/03/01 01:20:07;;;;;;;;;51.00;40.50;;;;;9.13;43.53;102193.53;5030270;28;48053;-73
2022/03/01 01:22:42;;;;;;;;;48.25;40.75;;;;;8.45;44.19;102080.34;5029854;28;45461;-75
2022/03/01 01:25:17;;;;;;;;;51.00;41.25;;;;;8.83;44.03;102162.75;5024724;28;45230;-75
2022/03/01 01:27:45;;;;;;;;;50.25;40.25;;;;;9.08;44.13;102198.28;5026590;28;45552;-75
2022/03/01 01:30:14;;;;;;;;;46.00;39.50;;;;;9.11;44.20;102198.09;5023250;28;47499;-74
2022/03/01 01:32:41;;;;;;;;;45.25;36.50;;;;;9.06;44.18;102190.44;5036762;28;45392;-75
2022/03/01 01:35:07;;;;;;;;;49.75;39.50;;;;;9.13;44.15;102201.50;5035648;28;45608;-79
2022/03/01 01:37:33;;;;;;;;;58.75;44.00;;;;;9.00;44.06;102166.09;5020926;28;45340;-75
2022/03/01 01:39:59;;;;;;;;;48.75;40.25;;;;;8.80;43.96;102133.75;5040450;28;47765;-75
2022/03/01 01:42:25;;;;;;;;;50.50;39.25;;;;;8.98;44.39;102168.84;5026804;28;45562;-72
2022/03/01 01:44:50;;;;;;;;;49.00;38.25;;;;;9.01;44.38;102175.75;5033347;28;45458;-74
2022/03/01 01:47:16;;;;;;;;;50.00;38.50;;;;;9.00;44.26;102168.75;5031638;28;45291;-72
2022/03/01 01:49:44;;;;;;;;;52.00;42.75;;;;;8.99;44.56;102181.16;5030243;28;47426;-73
2022/03/01 01:52:09;;;;;;;;;47.00;38.25;;;;;8.98;44.69;102194.50;5030204;28;45455;-73
2022/03/01 01:54:35;;;;;;;;;51.75;43.00;;;;;8.89;44.73;102182.72;5034987;28;45399;-75
2022/03/01 01:57:01;;;;;;;;;54.00;44.25;;;;;8.97;44.87;102208.72;5028881;28;45360;-72
2022/03/01 01:59:26;;;;;;;;;48.50;40.50;;;;;8.98;45.30;102205.13;5023463;28;46645;-75
2022/03/01 02:01:52;;;;;;;;;49.75;42.00;;;;;8.91;45.01;102195.88;5035451;28;45416;-74
2022/03/01 02:04:17;;;;;;;;;51.00;40.25;;;;;9.00;44.84;102205.88;5018854;28;45510;-78
2022/03/01 02:06:51;;;;;;;;;54.50;43.00;;;;;8.87;44.89;102189.06;5034433;28;45550;-74
2022/03/01 02:09:16;;;;;;;;;47.75;38.25;;;;;8.95;44.56;102189.41;5027865;28;47706;-72
2022/03/01 02:11:42;;;;;;;;;49.25;41.25;;;;;9.00;44.48;102204.06;5026897;28;45437;-75
2022/03/01 02:14:07;;;;;;;;;52.00;39.25;;;;;9.00;44.82;102205.88;5035083;28;45547;-73
2022/03/01 02:16:34;;;;;;;;;50.75;42.50;;;;;8.83;44.89;102183.09;5034788;28;45468;-75
2022/03/01 02:19:00;;;;;;;;;55.00;41.75;;;;;8.96;44.83;102202.56;5019691;28;46492;-73
2022/03/01 02:21:25;;;;;;;;;43.67;38.33;;;;;8.94;44.72;102195.66;5016727;28;45327;-74
2022/03/01 02:23:50;;;;;;;;;44.50;36.00;;;;;8.93;45.05;102196.63;5026904;28;45625;-73
2022/03/01 02:26:16;;;;;;;;;44.25;36.75;;;;;8.87;44.87;102191.72;5027626;28;45419;-73
2022/03/01 02:28:41;;;;;;;;;45.50;38.50;;;;;8.92;44.92;102189.59;5018076;28;45900;-73
2022/03/01 02:31:06;;;;;;;;;48.25;38.50;;;;;8.89;44.97;102189.81;5026124;28;45982;-73
2022/03/01 02:33:32;;;;;;;;;49.00;38.75;;;;;8.90;44.69;102186.22;5020833;28;45348;-71
2022/03/01 02:35:57;;;;;;;;;53.50;38.75;;;;;6.97;44.78;101864.56;5033663;28;45289;-75
2022/03/01 02:38:22;;;;;;;;;48.25;38.75;;;;;8.91;45.34;102177.31;5016198;28;47941;-74
2022/03/01 02:40:48;;;;;;;;;50.75;41.75;;;;;8.92;45.42;102181.66;5024089;28;45264;-74
2022/03/01 02:43:13;;;;;;;;;49.25;40.75;;;;;8.95;45.33;102198.22;5016332;28;45223;-74
2022/03/01 02:45:39;;;;;;;;;47.50;40.75;;;;;8.88;45.29;102198.72;5033791;28;45618;-73
2022/03/01 02:48:04;;;;;;;;;55.00;46.00;;;;;8.85;45.65;102194.47;5026000;28;46303;-73
2022/03/01 02:50:30;;;;;;;;;54.75;44.75;;;;;8.78;46.07;102188.69;5034365;28;45461;-73
2022/03/01 02:52:55;;;;;;;;;57.00;43.75;;;;;8.79;45.96;102187.72;5036403;28;45773;-73
2022/03/01 02:55:21;;;;;;;;;51.75;42.25;;;;;8.87;46.19;102208.47;5035663;28;45275;-73
2022/03/01 02:57:46;;;;;;;;;52.75;43.75;;;;;8.82;46.38;102199.97;5034379;28;46521;-72
2022/03/01 03:00:12;;;;;;;;;51.50;41.75;;;;;8.71;46.40;102191.81;5032519;28;46190;-73
2022/03/01 03:02:38;;;;;;;;;46.00;40.25;;;;;8.65;46.35;102193.06;5036529;28;45313;-73
2022/03/01 03:05:06;;;;;;;;;48.25;39.00;;;;;8.74;46.36;102212.84;5019156;28;45627;-73
2022/03/01 03:07:32;;;;;;;;;53.00;43.25;;;;;8.60;46.42;102197.78;5035463;28;47540;-73
2022/03/01 03:09:58;;;;;;;;;49.50;41.50;;;;;8.63;46.14;102200.28;5017573;28;45283;-74
2022/03/01 03:12:23;;;;;;;;;53.50;42.50;;;;;8.56;46.23;102182.16;5029923;28;45395;-74
2022/03/01 03:14:48;;;;;;;;;54.50;43.50;;;;;8.66;46.24;102199.22;5022929;28;45221;-73
2022/03/01 03:17:14;;;;;;;;;53.25;43.00;;;;;8.70;46.00;102201.56;5017713;28;45723;-71
2022/03/01 03:19:40;;;;;;;;;56.00;44.75;;;;;8.65;46.42;102203.69;5015528;28;45424;-78
2022/03/01 03:22:05;;;;;;;;;53.50;42.50;;;;;8.64;46.09;102194.03;5023825;28;45332;-74
2022/03/01 03:24:35;;;;;;;;;57.25;45.00;;;;;8.65;45.86;102192.22;5030315;28;45539;-73
2022/03/01 03:27:01;;;;;;;;;57.00;47.75;;;;;8.71;45.74;102208.59;5035488;28;47262;-74
2022/03/01 03:29:27;;;;;;;;;51.25;42.50;;;;;8.69;45.83;102207.84;5021455;28;45255;-71
2022/03/01 03:31:57;;;;;;;;;51.75;43.00;;;;;8.64;46.21;102199.31;5025060;28;45252;-72
2022/03/01 03:34:33;;;;;;;;;57.25;46.00;;;;;8.60;46.23;102186.31;5031948;28;45443;-73
2022/03/01 03:36:58;;;;;;;;;58.00;47.00;;;;;8.37;46.36;102161.25;5029351;28;46715;-73
2022/03/01 03:39:24;;;;;;;;;54.75;45.75;;;;;8.58;46.96;102207.63;5015037;28;45447;-74
2022/03/01 03:41:49;;;;;;;;;55.25;44.75;;;;;8.30;46.71;102162.56;5017789;28;45992;-76
2022/03/01 03:44:17;;;;;;;;;54.00;45.75;;;;;8.54;46.73;102196.38;5028734;28;45360;-74
2022/03/01 03:46:43;;;;;;;;;52.00;42.75;;;;;7.95;46.41;102107.28;5035176;28;47786;-73
2022/03/01 03:49:08;;;;;;;;;57.00;46.50;;;;;8.42;47.04;102186.56;5022990;28;45289;-73
2022/03/01 03:51:33;;;;;;;;;51.50;43.75;;;;;8.33;47.06;102192.38;5016763;28;45422;-73
2022/03/01 03:53:59;;;;;;;;;58.00;46.50;;;;;8.26;47.57;102174.31;5017235;28;45539;-75
2022/03/01 03:56:24;;;;;;;;;60.25;47.50;;;;;8.24;47.41;102183.19;5021190;28;45935;-73
2022/03/01 03:58:50;;;;;;;;;56.25;42.75;;;;;8.30;46.73;102197.00;5020039;28;45540;-78
2022/03/01 04:01:15;;;;;;;;;52.00;42.75;;;;;8.24;47.11;102207.03;5031364;28;45400;-72
2022/03/01 04:03:41;;;;;;;;;50.75;40.75;;;;;8.08;47.42;102185.06;5025032;28;45497;-73
2022/03/01 04:06:06;;;;;;;;;53.50;43.00;;;;;8.06;47.11;102179.03;5046279;28;47714;-74
2022/03/01 04:08:32;;;;;;;;;51.00;42.25;;;;;8.08;47.09;102182.41;5016391;28;45401;-73
2022/03/01 04:10:58;;;;;;;;;50.25;39.75;;;;;7.95;46.50;102149.66;5022406;28;45384;-72
2022/03/01 04:13:24;;;;;;;;;52.25;42.50;;;;;8.16;47.39;102179.28;5017145;28;45508;-74
2022/03/01 04:15:50;;;;;;;;;51.00;41.00;;;;;7.80;47.03;102124.97;5028917;28;48469;-73
2022/03/01 04:18:15;;;;;;;;;49.75;40.50;;;;;7.92;47.35;102147.22;5031991;28;46172;-72
2022/03/01 04:20:41;;;;;;;;;49.75;41.50;;;;;8.10;47.19;102175.22;5020794;28;45521;-72
2022/03/01 04:23:06;;;;;;;;;53.00;42.50;;;;;7.99;46.82;102156.47;5018114;28;45293;-74
2022/03/01 04:25:32;;;;;;;;;45.25;37.50;;;;;7.97;46.93;102160.16;5025935;28;45960;-74
2022/03/01 04:27:57;;;;;;;;;53.25;41.00;;;;;7.25;46.95;102045.38;5023471;28;46223;-74
2022/03/01 04:30:22;;;;;;;;;49.50;38.75;;;;;7.94;46.83;102182.38;5022668;28;45703;-71
2022/03/01 04:32:48;;;;;;;;;50.25;39.75;;;;;7.89;46.99;102181.81;5019775;28;45328;-71
2022/03/01 04:35:14;;;;;;;;;49.50;40.25;;;;;7.43;47.21;102094.56;5042654;28;47282;-73
2022/03/01 04:37:41;;;;;;;;;52.25;40.00;;;;;7.49;46.92;102094.19;5029831;28;45275;-72
2022/03/01 04:40:08;;;;;;;;;45.25;35.50;;;;;8.01;46.68;102178.44;5028449;28;45394;-73
2022/03/01 04:42:34;;;;;;;;;47.50;39.00;;;;;8.08;46.51;102184.22;5022265;28;45452;-72
2022/03/01 04:45:01;;;;;;;;;45.00;39.00;;;;;8.12;46.61;102189.22;5029785;28;47712;-73
2022/03/01 04:47:27;;;;;;;;;49.50;39.75;;;;;8.09;46.07;102173.53;5025923;28;45322;-71
2022/03/01 04:49:53;;;;;;;;;50.75;39.00;;;;;8.22;46.46;102185.09;5022136;28;45251;-72
2022/03/01 04:52:18;;;;;;;;;41.67;36.67;;;;;7.90;46.16;102133.22;5029476;28;45460;-73
2022/03/01 04:54:44;;;;;;;;;49.50;39.00;;;;;8.28;46.76;102196.25;5025806;28;47690;-70
2022/03/01 04:57:09;;;;;;;;;46.75;38.00;;;;;7.78;45.81;102094.22;5019332;28;45630;-72
2022/03/01 04:59:35;;;;;;;;;51.00;39.00;;;;;7.91;46.11;102105.78;5026187;28;45590;-71
2022/03/01 05:02:01;;;;;;;;;44.75;36.50;;;;;8.34;46.43;102172.06;5024773;28;45627;-73
2022/03/01 05:04:26;;;;;;;;;46.75;37.75;;;;;8.41;46.41;102168.94;5025748;28;47708;-73
2022/03/01 05:06:52;;;;;;;;;43.25;36.75;;;;;8.28;45.79;102161.81;5024991;28;45411;-75
2022/03/01 05:09:18;;;;;;;;;49.50;40.50;;;;;7.91;46.19;102103.13;5026416;28;45474;-75
2022/03/01 05:11:43;;;;;;;;;52.00;41.75;;;;;8.31;46.23;102165.13;5026729;28;45314;-74
2022/03/01 05:14:09;;;;;;;;;49.00;40.00;;;;;8.16;46.20;102151.00;5025174;28;46934;-73
2022/03/01 05:16:34;;;;;;;;;50.75;41.00;;;;;8.27;46.13;102178.66;5019132;28;45334;-74
2022/03/01 05:19:00;;;;;;;;;49.50;39.00;;;;;8.12;46.27;102144.19;5022359;28;45485;-74
2022/03/01 05:21:25;;;;;;;;;46.25;38.75;;;;;8.29;46.26;102169.66;5034807;28;45574;-73
2022/03/01 05:23:51;;;;;;;;;45.00;38.00;;;;;8.36;46.11;102167.50;5033273;28;46088;-74
2022/03/01 05:26:19;;;;;;;;;48.25;39.75;;;;;8.49;45.74;102181.72;5021504;28;45294;-73
2022/03/01 05:28:45;;;;;;;;;52.25;38.50;;;;;8.52;45.57;102174.41;5025892;28;45279;-75
2022/03/01 05:31:10;;;;;;;;;51.00;39.00;;;;;8.42;45.54;102152.09;5027580;28;45315;-75
2022/03/01 05:33:36;;;;;;;;;51.00;38.25;;;;;8.50;45.71;102152.47;5034826;28;48160;-74
2022/03/01 05:36:02;;;;;;;;;44.75;39.50;;;;;8.50;45.41;102146.31;5033220;28;45549;-73
2022/03/01 05:38:27;;;;;;;;;49.25;41.25;;;;;8.67;45.53;102177.91;5023189;28;45418;-75
2022/03/01 05:40:52;;;;;;;;;49.25;39.25;;;;;8.62;45.13;102172.06;5021529;28;45312;-72
2022/03/01 05:43:18;;;;;;;;;48.00;38.25;;;;;8.31;45.07;102113.91;5026000;28;45617;-75
2022/03/01 05:45:43;;;;;;;;;47.00;35.00;;;;;8.58;45.57;102175.81;5033584;28;45521;-73
2022/03/01 05:48:09;;;;;;;;;49.00;38.75;;;;;8.57;45.19;102168.81;5030207;28;45483;-72
2022/03/01 05:50:34;;;;;;;;;44.50;37.50;;;;;8.61;45.51;102173.00;5029819;28;45541;-73
2022/03/01 05:53:00;;;;;;;;;53.25;41.00;;;;;8.50;45.64;102133.06;5018598;28;45632;-75
2022/03/01 05:55:25;;;;;;;;;52.00;42.50;;;;;8.49;45.38;102161.34;5025791;28;45399;-73
2022/03/01 05:57:51;;;;;;;;;44.00;38.50;;;;;8.52;45.49;102169.13;5034539;28;45470;-73
2022/03/01 06:00:18;;;;;;;;;50.00;40.50;;;;;8.44;45.56;102154.66;5032607;28;45606;-75
2022/03/01 06:02:50;;;;;;;;;53.25;41.25;;;;;8.45;46.28;102167.81;5029732;28;45423;-74
2022/03/01 06:05:16;;;;;;;;;49.25;38.00;;;;;8.42;46.18;102153.91;5047120;28;45474;-73
2022/03/01 06:07:42;;;;;;;;;50.25;40.50;;;;;8.51;46.03;102167.41;5026781;28;45368;-76
2022/03/01 06:10:09;;;;;;;;;49.50;41.00;;;;;8.50;45.66;102172.81;5032382;28;45398;-74
2022/03/01 06:12:35;;;;;;;;;47.25;35.25;;;;;8.35;45.28;102155.22;5030772;28;46815;-75
2022/03/01 06:15:01;;;;;;;;;40.50;35.50;;;;;8.25;45.18;102133.72;5041903;28;45458;-75
2022/03/01 06:17:26;;;;;;;;;41.75;35.00;;;;;8.40;45.23;102166.38;5026159;28;45554;-72
2022/03/01 06:19:52;;;;;;;;;46.75;36.25;;;;;8.33;45.08;102159.72;5021740;28;45277;-75
2022/03/01 06:22:19;;;;;;;;;46.25;39.00;;;;;8.35;45.68;102165.81;5036758;28;48979;-75
2022/03/01 06:24:44;;;;;;;;;41.00;34.25;;;;;8.28;45.28;102151.22;5024654;28;45404;-74
2022/03/01 06:27:10;;;;;;;;;50.50;39.50;;;;;8.10;45.25;102146.09;5017245;28;45273;-75
2022/03/01 06:29:37;;;;;;;;;49.25;40.50;;;;;8.24;45.84;102167.31;5020371;28;45629;-76
2022/03/01 06:32:04;;;;;;;;;43.50;39.00;;;;;8.17;45.53;102171.25;5032127;28;47569;-74
2022/03/01 06:34:30;;;;;;;;;47.50;38.00;;;;;8.28;45.93;102193.59;5024457;28;45374;-76
2022/03/01 06:36:59;;;;;;;;;49.50;39.00;;;;;7.98;45.69;102133.59;5032231;28;45474;-76
2022/03/01 06:39:25;;;;;;;;;48.00;37.25;;;;;8.36;45.25;102191.34;5028709;28;45666;-73
2022/03/01 06:41:51;;;;;;;;;50.50;37.75;;;;;8.22;44.88;102166.56;5035448;28;48222;-73
2022/03/01 06:44:17;;;;;;;;;46.75;37.25;;;;;8.23;45.07;102170.91;5021385;28;45472;-74
2022/03/01 06:46:43;;;;;;;;;46.75;38.25;;;;;8.31;45.22;102188.13;5029539;28;45301;-74
2022/03/01 06:49:08;;;;;;;;;48.50;38.25;;;;;8.23;44.82;102175.34;5026499;28;45315;-73
2022/03/01 06:51:34;;;;;;;;;48.00;36.00;;;;;8.31;44.83;102198.72;5034672;28;48102;-76
2022/03/01 06:54:00;;;;;;;;;46.67;38.67;;;;;8.24;45.25;102187.66;5020420;28;45242;-77
2022/03/01 06:56:26;;;;;;;;;45.00;39.00;;;;;8.36;45.14;102194.00;5032232;28;45924;-75
2022/03/01 06:58:51;;;;;;;;;46.25;38.75;;;;;8.54;45.04;102198.19;5016161;28;45310;-75
2022/03/01 07:01:17;;;;;;;;;53.50;40.75;;;;;8.36;45.01;102160.41;5030469;28;45705;-76
2022/03/01 07:03:42;;;;;;;;;62.00;50.00;;;;;8.75;45.03;102218.03;5029771;28;46128;-76
2022/03/01 07:06:08;;;;;;;;;49.75;38.50;;;;;8.43;44.39;102155.59;5025202;28;45379;-75
2022/03/01 07:08:34;;;;;;;;;48.00;41.25;;;;;8.82;45.18;102211.44;5019200;28;45431;-76
2022/03/01 07:10:59;;;;;;;;;37.00;34.25;;;;;8.80;44.58;102202.69;5031420;28;48337;-74
2022/03/01 07:13:25;;;;;;;;;48.50;40.75;;;;;8.91;44.66;102225.03;5028983;28;45471;-76
2022/03/01 07:15:50;;;;;;;;;45.00;35.50;;;;;8.91;44.54;102235.66;5048023;28;45639;-73
2022/03/01 07:18:16;;;;;;;;;49.50;40.00;;;;;8.93;44.47;102225.78;5033191;28;45376;-76
2022/03/01 07:20:43;;;;;;;;;51.75;38.75;;;;;8.90;44.42;102228.66;5021649;28;47915;-74
2022/03/01 07:23:10;;;;;;;;;49.25;39.00;;;;;8.78;44.49;102199.28;5024726;28;45320;-74
2022/03/01 07:25:36;;;;;;;;;54.25;42.50;;;;;8.92;44.71;102221.44;5027911;28;45566;-74
2022/03/01 07:28:02;;;;;;;;;46.50;38.25;;;;;8.93;44.95;102207.22;5025972;28;45418;-73
2022/03/01 07:30:28;;;;;;;;;50.75;39.50;;;;;8.71;44.54;102160.84;5026572;28;46615;-74
2022/03/01 07:32:56;;;;;;;;;50.50;40.75;;;;;8.98;44.29;102195.38;5036275;28;45433;-75
2022/03/01 07:35:22;;;;;;;;;48.00;39.00;;;;;9.00;44.51;102197.91;5031887;28;45296;-72
2022/03/01 07:37:48;;;;;;;;;55.75;40.00;;;;;9.07;44.70;102201.91;5019916;28;45555;-74
2022/03/01 07:40:14;;;;;;;;;52.25;41.75;;;;;9.13;44.83;102212.09;5032515;28;46491;-74
2022/03/01 07:42:40;;;;;;;;;52.25;42.00;;;;;9.17;44.92;102199.50;5033856;28;45218;-73
2022/03/01 07:45:07;;;;;;;;;50.00;40.75;;;;;9.39;44.57;102221.88;5025356;28;45489;-74
2022/03/01 07:47:32;;;;;;;;;48.75;40.25;;;;;9.45;44.16;102224.16;5025311;28;45682;-74
2022/03/01 07:49:58;;;;;;;;;55.50;43.50;;;;;9.45;44.29;102205.56;5031388;28;47880;-76
2022/03/01 07:52:23;;;;;;;;;48.50;39.25;;;;;9.51;44.12;102219.38;5045853;28;45537;-75
2022/03/01 07:54:49;;;;;;;;;51.25;41.00;;;;;9.61;43.98;102205.41;5027336;28;45329;-75
2022/03/01 07:57:16;;;;;;;;;51.75;41.75;;;;;9.68;44.13;102211.16;5024864;28;45544;-75
2022/03/01 07:59:42;;;;;;;;;54.00;41.50;;;;;9.82;43.74;102210.25;5031941;28;45747;-73
2022/03/01 08:02:07;;;;;;;;;53.00;43.00;;;;;9.87;43.83;102194.84;5034150;28;46368;-76
2022/03/01 08:04:33;;;;;;;;;55.00;43.25;;;;;9.72;43.64;102140.94;5039736;28;45394;-76
2022/03/01 08:06:58;;;;;;;;;52.50;44.00;;;;;9.96;43.35;102165.81;5038620;28;45419;-75
2022/03/01 08:09:24;;;;;;;;;51.75;40.25;;;;;10.44;42.97;102221.06;5035024;28;48509;-76
2022/03/01 08:11:49;;;;;;;;;51.00;42.00;;;;;10.39;42.58;102212.53;5028400;28;45371;-74
2022/03/01 08:14:15;;;;;;;;;50.00;42.50;;;;;10.54;43.02;102224.75;5021368;28;45610;-76
2022/03/01 08:16:41;;;;;;;;;53.50;43.00;;;;;10.49;42.61;102214.44;5028633;28;45712;-76
2022/03/01 08:19:07;;;;;;;;;52.75;41.25;;;;;10.53;42.53;102226.56;5035468;28;46285;-73
2022/03/01 08:21:32;;;;;;;;;51.50;43.00;;;;;10.38;42.50;102187.75;5036964;28;45599;-73
2022/03/01 08:24:00;;;;;;;;;53.00;43.00;;;;;10.41;42.20;102184.03;5022119;28;45373;-74
2022/03/01 08:26:26;;;;;;;;;54.25;43.00;;;;;10.25;42.56;102173.63;5028444;28;45466;-74
2022/03/01 08:28:52;;;;;;;;;55.25;43.25;;;;;10.26;42.56;102193.94;5020884;28;47802;-74
2022/03/01 08:31:19;;;;;;;;;50.75;41.75;;;;;10.34;42.82;102216.38;5042980;28;45557;-74
2022/03/01 08:33:44;;;;;;;;;57.50;44.00;;;;;10.15;42.86;102191.97;5030566;28;45455;-74
2022/03/01 08:36:12;;;;;;;;;51.00;42.00;;;;;10.07;42.61;102203.16;5037566;28;45554;-75
2022/03/01 08:38:38;;;;;;;;;53.50;43.75;;;;;9.99;43.34;102210.78;5024688;28;45453;-75
2022/03/01 08:41:04;;;;;;;;;56.00;44.00;;;;;9.96;43.57;102215.44;5034323;28;45267;-75
2022/03/01 08:43:29;;;;;;;;;61.00;47.25;;;;;9.93;44.06;102219.16;5037642;28;45513;-76
2022/03/01 08:45:55;;;;;;;;;54.00;44.75;;;;;9.97;43.79;102217.16;5025059;28;45546;-80
2022/03/01 08:48:20;;;;;;;;;56.25;46.50;;;;;9.81;43.92;102185.47;5035082;28;45622;-77
2022/03/01 08:50:46;;;;;;;;;55.50;44.50;;;;;9.98;43.96;102219.69;5033382;28;45473;-79
2022/03/01 08:53:13;;;;;;;;;56.75;45.75;;;;;8.60;43.82;101998.97;5038167;28;45434;-80
2022/03/01 08:55:39;;;;;;;;;53.25;44.25;;;;;10.02;43.87;102225.69;5038579;28;45482;-76
2022/03/01 08:58:08;;;;;;;;;108.75;99.50;;;;;10.11;43.86;102216.22;5031046;28;47237;-80
2022/03/01 09:00:34;;;;;;;;;62.00;48.75;;;;;9.88;44.02;102164.66;5037129;28;45777;-80
2022/03/01 09:03:00;;;;;;;;;62.00;47.25;;;;;10.05;43.67;102197.09;5025175;28;45512;-74
2022/03/01 09:05:26;;;;;;;;;53.25;43.50;;;;;10.27;43.30;102235.50;5019108;28;45484;-76
2022/03/01 09:07:51;;;;;;;;;58.75;45.75;;;;;10.15;43.43;102212.38;5023697;28;47672;-75
2022/03/01 09:10:22;;;;;;;;;52.25;43.00;;;;;10.44;43.47;102237.00;5036646;28;45332;-77
2022/03/01 09:12:54;;;;;;;;;53.25;44.50;;;;;10.62;43.34;102241.91;5034460;28;45386;-78
2022/03/01 09:15:21;;;;;;;;;51.25;42.75;;;;;10.79;43.20;102243.34;5033228;28;45458;-75
2022/03/01 09:17:47;;;;;;;;;53.50;44.00;;;;;10.47;42.23;102173.81;5040443;28;47558;-75
2022/03/01 09:20:13;;;;;;;;;50.25;42.25;;;;;10.99;42.85;102239.25;5031894;28;45529;-75
2022/03/01 09:22:39;;;;;;;;;36.00;34.00;;;;;10.85;42.73;102218.97;5030656;28;45439;-79
2022/03/01 09:25:06;;;;;;;;;59.25;47.00;;;;;10.93;42.28;102224.59;5034652;28;45444;-79
2022/03/01 09:27:36;;;;;;;;;56.00;44.00;;;;;10.61;41.94;102170.16;5027082;28;46156;-76
2022/03/01 09:30:03;;;;;;;;;57.00;46.00;;;;;10.62;42.22;102170.09;5025865;28;45726;-77
2022/03/01 09:32:28;;;;;;;;;58.00;43.50;;;;;10.98;41.74;102221.59;5033940;28;45373;-77
2022/03/01 09:34:55;;;;;;;;;58.50;45.25;;;;;10.77;42.08;102194.72;5034116;28;45466;-75
2022/03/01 09:37:21;;;;;;;;;57.00;47.50;;;;;10.71;42.59;102195.16;5033772;28;48129;-77
2022/03/01 09:39:47;;;;;;;;;60.75;46.00;;;;;10.88;42.80;102220.56;5035867;28;45768;-76
2022/03/01 09:42:16;;;;;;;;;60.50;48.25;;;;;10.88;42.74;102217.91;5032344;28;45214;-75
2022/03/01 09:44:45;;;;;;;;;52.75;42.25;;;;;10.87;42.62;102224.19;5035031;28;45556;-75
2022/03/01 09:47:10;;;;;;;;;63.50;49.75;;;;;10.91;42.68;102226.50;5034071;28;48856;-80
2022/03/01 09:49:36;;;;;;;;;62.50;49.75;;;;;10.47;42.62;102123.31;5024756;28;45187;-79
2022/03/01 09:52:12;;;;;;;;;;;;;;;;;;;;;
2022/03/01 09:54:38;;;;;;;;;61.50;48.75;;;;;10.53;42.22;102109.56;5036999;28;63457;-78
2022/03/01 09:57:06;;;;;;;;;60.50;47.25;;;;;11.21;41.67;102206.59;5033915;28;47098;-78
2022/03/01 10:00:01;;;;;;;;;59.50;45.75;;;;;9.46;41.71;101898.50;5026109;28;45477;-79
2022/03/01 10:02:56;;;;;;;;;57.50;46.00;;;;;11.48;41.20;102241.03;5030089;28;45498;-79
2022/03/01 10:05:40;;;;;;;;;58.00;46.75;;;;;11.11;41.57;102131.06;5026341;28;45422;-80
2022/03/01 10:08:11;;;;;;;;;57.50;46.75;;;;;11.81;40.97;102227.00;5033608;28;47716;-79
2022/03/01 10:10:47;;;;;;;;;57.75;46.25;;;;;10.66;40.48;102021.78;5032429;28;45465;-80
2022/03/01 10:13:20;;;;;;;;;57.25;45.00;;;;;11.52;40.54;102125.31;5025290;28;45433;-80
2022/03/01 10:15:48;;;;;;;;;57.75;45.50;;;;;12.40;40.47;102210.91;5030107;28;45702;-79
2022/03/01 10:18:18;;;;;;;;;57.25;45.75;;;;;12.13;39.89;102125.94;5051284;28;46413;-82
2022/03/01 10:20:45;;;;;;;;;59.25;47.25;;;;;12.50;39.10;102150.53;5035460;28;45414;-81
2022/03/01 10:23:13;;;;;;;;;56.00;45.50;;;;;11.87;39.07;102000.91;5026727;28;45336;-78
2022/03/01 10:25:43;;;;;;;;;55.75;45.25;;;;;13.43;38.33;102217.75;5033301;28;45676;-79
2022/03/01 10:28:09;;;;;;;;;60.00;47.75;;;;;13.49;38.36;102187.84;5049725;28;46919;-80
2022/03/01 10:30:39;;;;;;;;;55.00;44.00;;;;;12.01;38.02;101914.50;5034155;28;45415;-80
2022/03/01 10:33:23;;;;;;;;;60.75;48.25;;;;;13.86;37.51;102200.81;5024929;28;45480;-79
2022/03/01 10:36:00;;;;;;;;;60.25;48.25;;;;;13.92;37.57;102202.94;5025778;28;45577;-79
2022/03/01 10:38:26;;;;;;;;;61.75;48.00;;;;;12.38;37.37;101920.31;5035996;28;46940;-80
2022/03/01 10:41:02;;;;;;;;;74.00;63.25;;;;;13.43;37.91;102080.66;5035416;28;45850;-78
2022/03/01 10:43:32;;;;;;;;;62.00;49.75;;;;;13.93;37.32;102137.81;5034815;28;45505;-77
2022/03/01 10:46:02;;;;;;;;;57.00;45.00;;;;;14.41;36.62;102206.75;5035505;28;45222;-81
2022/03/01 10:48:38;;;;;;;;;57.00;47.25;;;;;14.15;36.44;102156.34;5034215;28;47777;-79
2022/03/01 10:51:11;;;;;;;;;61.75;48.50;;;;;14.37;36.95;102179.41;5036523;28;45522;-79
2022/03/01 10:53:40;;;;;;;;;55.25;45.50;;;;;14.48;36.53;102186.56;5032861;28;45352;-79
2022/03/01 10:56:09;;;;;;;;;55.50;43.75;;;;;14.63;35.84;102206.63;5032002;28;45273;-79
2022/03/01 10:58:40;;;;;;;;;57.00;44.75;;;;;14.56;36.40;102206.28;5024886;28;46838;-79
2022/03/01 11:01:10;;;;;;;;;71.00;55.50;;;;;12.74;36.32;101902.22;5032205;28;45633;-79
2022/03/01 11:03:36;;;;;;;;;52.25;40.75;;;;;12.69;36.10;101904.44;5028197;28;45219;-78
2022/03/01 11:06:03;;;;;;;;;46.75;39.75;;;;;12.91;36.50;101944.34;5033907;28;45410;-78
2022/03/01 11:08:39;;;;;;;;;53.25;43.50;;;;;14.22;36.78;102181.63;5018553;28;48577;-77
2022/03/01 11:11:10;;;;;;;;;53.75;43.50;;;;;14.10;36.49;102177.31;5032534;28;45380;-79
2022/03/01 11:13:43;;;;;;;;;48.25;39.50;;;;;14.05;36.74;102176.88;5032863;28;45268;-80
2022/03/01 11:16:27;;;;;;;;;46.50;39.50;;;;;14.11;36.75;102181.69;5023642;28;45346;-79